createdAt,value
2019-04-06T00:00:39.223Z,0.18
2019-04-06T00:01:39.214Z,0.14
2019-04-06T00:02:39.203Z,0.20
2019-04-06T00:03:39.258Z,0.15
2019-04-06T00:04:39.185Z,0.11
2019-04-06T00:05:39.211Z,0.10
2019-04-06T00:06:39.158Z,0.07
2019-04-06T00:07:39.150Z,0.13
2019-04-06T00:08:39.136Z,0.13
2019-04-06T00:09:39.147Z,0.07
2019-04-06T00:10:39.163Z,0.15
2019-04-06T00:11:39.112Z,0.07
2019-04-06T00:12:39.095Z,0.07
2019-04-06T00:13:49.590Z,0.11
2019-04-06T00:14:39.120Z,0.14
2019-04-06T00:15:39.064Z,0.11
2019-04-06T00:16:39.057Z,0.20
2019-04-06T00:17:39.048Z,0.17
2019-04-06T00:18:39.038Z,0.20
2019-04-06T00:19:39.024Z,0.20
2019-04-06T00:20:39.050Z,0.14
2019-04-06T00:21:39.002Z,0.17
2019-04-06T00:22:38.998Z,0.18
2019-04-06T00:23:38.996Z,0.11
2019-04-06T00:24:39.013Z,0.04
2019-04-06T00:25:44.287Z,0.03
2019-04-06T00:26:39.974Z,0.00
2019-04-06T00:27:38.943Z,-0.01
2019-04-06T00:28:38.937Z,-0.04
2019-04-06T00:29:38.916Z,-0.03
2019-04-06T00:30:38.905Z,-0.05
2019-04-06T00:31:38.895Z,-0.05
2019-04-06T00:32:38.928Z,0.02
2019-04-06T00:33:38.877Z,-0.01
2019-04-06T00:34:38.864Z,-0.10
2019-04-06T00:35:38.861Z,-0.03
2019-04-06T00:36:38.841Z,0.04
2019-04-06T00:37:38.834Z,-0.05
2019-04-06T00:38:38.843Z,0.07
2019-04-06T00:39:38.812Z,0.10
2019-04-06T00:40:38.815Z,0.10
2019-04-06T00:41:38.791Z,0.11
2019-04-06T00:42:38.780Z,0.04
2019-04-06T00:43:38.770Z,-0.05
2019-04-06T00:44:48.857Z,0.10
2019-04-06T00:45:38.745Z,-0.01
2019-04-06T00:46:38.742Z,-0.10
2019-04-06T00:47:38.728Z,-0.08
2019-04-06T00:48:38.716Z,-0.08
2019-04-06T00:49:38.713Z,-0.18
2019-04-06T00:50:38.710Z,-0.19
2019-04-06T00:51:38.680Z,-0.19
2019-04-06T00:52:38.722Z,-0.19
2019-04-06T00:53:38.668Z,-0.23
2019-04-06T00:54:38.655Z,-0.26
2019-04-06T00:55:38.673Z,-0.26
2019-04-06T00:56:38.633Z,-0.26
2019-04-06T00:57:38.616Z,-0.23
2019-04-06T00:58:38.607Z,-0.33
2019-04-06T00:59:38.595Z,-0.31
2019-04-06T01:00:38.590Z,-0.36
2019-04-06T01:01:38.688Z,-0.22
2019-04-06T01:02:38.563Z,-0.29
2019-04-06T01:03:38.552Z,-0.22
2019-04-06T01:04:38.588Z,-0.34
2019-04-06T01:05:38.541Z,-0.34
2019-04-06T01:06:38.521Z,-0.34
2019-04-06T01:07:38.541Z,-0.28
2019-04-06T01:08:38.508Z,-0.26
2019-04-06T01:09:38.494Z,-0.25
2019-04-06T01:10:38.488Z,-0.28
2019-04-06T01:11:38.475Z,-0.29
2019-04-06T01:12:38.465Z,-0.18
2019-04-06T01:13:38.472Z,-0.15
2019-04-06T01:14:38.442Z,-0.08
2019-04-06T01:15:48.547Z,-0.05
2019-04-06T01:16:38.544Z,-0.03
2019-04-06T01:17:38.404Z,0.00
2019-04-06T01:18:38.450Z,-0.10
2019-04-06T01:19:38.389Z,-0.01
2019-04-06T01:20:38.379Z,-0.03
2019-04-06T01:21:38.366Z,0.07
2019-04-06T01:22:38.356Z,0.07
2019-04-06T01:23:38.343Z,0.13
2019-04-06T01:24:38.371Z,0.08
2019-04-06T01:25:38.318Z,0.15
2019-04-06T01:26:38.317Z,0.10
2019-04-06T01:27:38.297Z,-0.05
2019-04-06T01:28:38.297Z,-0.08
2019-04-06T01:29:38.324Z,-0.14
2019-04-06T01:30:38.271Z,-0.18
2019-04-06T01:31:38.255Z,-0.26
2019-04-06T01:32:38.253Z,-0.31
2019-04-06T01:33:38.241Z,-0.34
2019-04-06T01:34:38.230Z,-0.29
2019-04-06T01:35:38.312Z,-0.31
2019-04-06T01:36:38.204Z,-0.36
2019-04-06T01:37:38.191Z,-0.37
2019-04-06T01:38:38.184Z,-0.34
2019-04-06T01:39:38.171Z,-0.37
2019-04-06T01:40:38.162Z,-0.40
2019-04-06T01:41:38.230Z,-0.40
2019-04-06T01:42:38.144Z,-0.37
2019-04-06T01:43:38.130Z,-0.47
2019-04-06T01:44:38.123Z,-0.49
2019-04-06T01:45:38.110Z,-0.52
2019-04-06T01:46:48.907Z,-0.42
2019-04-06T01:47:38.094Z,-0.44
2019-04-06T01:48:38.076Z,-0.49
2019-04-06T01:49:38.069Z,-0.52
2019-04-06T01:50:38.054Z,-0.51
2019-04-06T01:51:38.051Z,-0.65
2019-04-06T01:52:38.042Z,-0.70
2019-04-06T01:53:38.025Z,-0.67
2019-04-06T01:54:38.017Z,-0.69
2019-04-06T01:55:38.006Z,-0.64
2019-04-06T01:56:37.991Z,-0.65
2019-04-06T01:57:38.020Z,-0.69
2019-04-06T01:58:37.973Z,-0.75
2019-04-06T01:59:37.968Z,-0.60
2019-04-06T02:00:37.948Z,-0.55
2019-04-06T02:01:37.952Z,-0.54
2019-04-06T02:02:37.932Z,-0.46
2019-04-06T02:03:37.956Z,-0.42
2019-04-06T02:04:37.910Z,-0.49
2019-04-06T02:05:37.935Z,-0.51
2019-04-06T02:06:37.889Z,-0.57
2019-04-06T02:07:37.892Z,-0.57
2019-04-06T02:08:37.876Z,-0.60
2019-04-06T02:09:37.933Z,-0.69
2019-04-06T02:10:37.844Z,-0.69
2019-04-06T02:11:37.839Z,-0.70
2019-04-06T02:12:37.829Z,-0.67
2019-04-06T02:13:37.811Z,-0.64
2019-04-06T02:14:37.834Z,-0.69
2019-04-06T02:15:37.794Z,-0.69
2019-04-06T02:16:37.808Z,-0.61
2019-04-06T02:17:47.977Z,-0.60
2019-04-06T02:18:37.758Z,-0.51
2019-04-06T02:19:37.751Z,-0.33
2019-04-06T02:20:37.774Z,-0.37
2019-04-06T02:21:37.724Z,-0.33
2019-04-06T02:22:37.723Z,-0.34
2019-04-06T02:23:37.705Z,-0.33
2019-04-06T02:24:37.779Z,-0.21
2019-04-06T02:25:39.126Z,-0.22
2019-04-06T02:26:37.717Z,-0.21
2019-04-06T02:27:37.658Z,-0.14
2019-04-06T02:28:37.655Z,-0.18
2019-04-06T02:29:37.640Z,-0.28
2019-04-06T02:30:37.633Z,-0.25
2019-04-06T02:31:37.630Z,-0.25
2019-04-06T02:32:37.618Z,-0.34
2019-04-06T02:33:37.600Z,-0.40
2019-04-06T02:34:37.592Z,-0.42
2019-04-06T02:35:37.576Z,-0.47
2019-04-06T02:36:37.567Z,-0.49
2019-04-06T02:37:37.596Z,-0.43
2019-04-06T02:38:37.653Z,-0.52
2019-04-06T02:39:37.533Z,-0.51
2019-04-06T02:40:37.524Z,-0.57
2019-04-06T02:41:37.510Z,-0.72
2019-04-06T02:42:37.506Z,-0.72
2019-04-06T02:43:37.552Z,-0.64
2019-04-06T02:44:37.486Z,-0.82
2019-04-06T02:45:37.474Z,-0.78
2019-04-06T02:46:37.577Z,-0.76
2019-04-06T02:47:37.457Z,-0.89
2019-04-06T02:48:48.151Z,-0.83
2019-04-06T02:49:37.440Z,-0.82
2019-04-06T02:50:37.574Z,-0.79
2019-04-06T02:51:37.412Z,-0.89
2019-04-06T02:52:37.401Z,-0.89
2019-04-06T02:53:37.393Z,-0.89
2019-04-06T02:54:37.417Z,-0.89
2019-04-06T02:55:37.371Z,-0.91
2019-04-06T02:56:45.971Z,-0.82
2019-04-06T02:57:38.351Z,-0.95
2019-04-06T02:58:37.338Z,-0.80
2019-04-06T02:59:37.327Z,-0.85
2019-04-06T03:00:37.352Z,-0.98
2019-04-06T03:01:37.304Z,-0.89
2019-04-06T03:02:37.293Z,-0.94
2019-04-06T03:03:37.288Z,-0.98
2019-04-06T03:04:37.274Z,-0.99
2019-04-06T03:05:37.258Z,-0.98
2019-04-06T03:06:37.261Z,-0.94
2019-04-06T03:07:37.234Z,-0.83
2019-04-06T03:08:37.230Z,-0.86
2019-04-06T03:09:37.218Z,-0.94
2019-04-06T03:10:37.213Z,-0.89
2019-04-06T03:11:37.195Z,-0.91
2019-04-06T03:12:37.211Z,-0.83
2019-04-06T03:13:37.170Z,-0.83
2019-04-06T03:14:37.199Z,-0.92
2019-04-06T03:15:37.162Z,-0.98
2019-04-06T03:16:37.142Z,-0.92
2019-04-06T03:17:37.131Z,-1.04
2019-04-06T03:18:37.128Z,-0.95
2019-04-06T03:19:47.186Z,-0.82
2019-04-06T03:20:37.286Z,-0.80
2019-04-06T03:21:37.084Z,-0.76
2019-04-06T03:22:37.226Z,-0.83
2019-04-06T03:23:49.564Z,-0.85
2019-04-06T03:24:38.075Z,-0.91
2019-04-06T03:25:37.048Z,-0.86
2019-04-06T03:26:37.033Z,-0.98
2019-04-06T03:27:37.028Z,-0.95
2019-04-06T03:28:37.229Z,-0.99
2019-04-06T03:29:37.039Z,-0.98
2019-04-06T03:30:37.248Z,-1.02
2019-04-06T03:31:37.256Z,-1.13
2019-04-06T03:32:36.997Z,-0.98
2019-04-06T03:33:36.980Z,-0.99
2019-04-06T03:34:36.986Z,-1.05
2019-04-06T03:35:36.996Z,-0.94
2019-04-06T03:36:36.930Z,-0.70
2019-04-06T03:37:36.921Z,-0.69
2019-04-06T03:38:36.909Z,-0.58
2019-04-06T03:39:36.898Z,-0.49
2019-04-06T03:40:36.923Z,-0.49
2019-04-06T03:41:36.882Z,-0.47
2019-04-06T03:42:36.866Z,-0.37
2019-04-06T03:43:36.863Z,-0.37
2019-04-06T03:44:36.843Z,-0.39
2019-04-06T03:45:36.834Z,-0.42
2019-04-06T03:46:36.866Z,-0.33
2019-04-06T03:47:36.810Z,-0.34
2019-04-06T03:48:36.804Z,-0.29
2019-04-06T03:49:36.786Z,-0.22
2019-04-06T03:50:48.009Z,-0.21
2019-04-06T03:51:36.769Z,-0.14
2019-04-06T03:52:36.800Z,-0.10
2019-04-06T03:53:36.747Z,-0.04
2019-04-06T03:54:36.761Z,-0.08
2019-04-06T03:55:36.873Z,-0.07
2019-04-06T03:56:36.719Z,-0.01
2019-04-06T03:57:36.704Z,0.15
2019-04-06T03:58:36.781Z,0.18
2019-04-06T03:59:36.682Z,0.23
2019-04-06T04:00:36.673Z,0.39
2019-04-06T04:01:36.668Z,0.50
2019-04-06T04:02:36.654Z,0.51
2019-04-06T04:03:36.973Z,0.47
2019-04-06T04:04:36.671Z,0.44
2019-04-06T04:05:36.624Z,0.50
2019-04-06T04:06:36.739Z,0.53
2019-04-06T04:07:36.610Z,0.42
2019-04-06T04:08:36.586Z,0.42
2019-04-06T04:09:36.589Z,0.44
2019-04-06T04:10:36.577Z,0.47
2019-04-06T04:11:36.553Z,0.49
2019-04-06T04:12:36.543Z,0.46
2019-04-06T04:13:36.756Z,0.44
2019-04-06T04:14:36.637Z,0.41
2019-04-06T04:15:36.652Z,0.41
2019-04-06T04:16:36.507Z,0.38
2019-04-06T04:17:36.489Z,0.44
2019-04-06T04:18:36.622Z,0.46
2019-04-06T04:19:36.476Z,0.41
2019-04-06T04:20:36.505Z,0.53
2019-04-06T04:21:46.856Z,0.50
2019-04-06T04:22:36.569Z,0.57
2019-04-06T04:23:36.446Z,0.61
2019-04-06T04:24:36.425Z,0.66
2019-04-06T04:25:36.406Z,0.73
2019-04-06T04:26:36.422Z,0.66
2019-04-06T04:27:36.386Z,0.62
2019-04-06T04:28:36.375Z,0.68
2019-04-06T04:29:36.370Z,0.68
2019-04-06T04:30:36.356Z,0.66
2019-04-06T04:31:36.342Z,0.61
2019-04-06T04:32:36.375Z,0.69
2019-04-06T04:33:36.324Z,0.66
2019-04-06T04:34:36.440Z,0.70
2019-04-06T04:35:36.310Z,0.68
2019-04-06T04:36:36.288Z,0.83
2019-04-06T04:37:36.298Z,0.86
2019-04-06T04:38:36.309Z,0.87
2019-04-06T04:39:36.255Z,0.88
2019-04-06T04:40:36.368Z,0.93
2019-04-06T04:41:39.178Z,0.97
2019-04-06T04:42:36.230Z,0.93
2019-04-06T04:43:36.211Z,0.93
2019-04-06T04:44:36.253Z,1.04
2019-04-06T04:45:36.200Z,0.98
2019-04-06T04:46:36.181Z,1.12
2019-04-06T04:47:36.173Z,1.14
2019-04-06T04:48:36.170Z,1.11
2019-04-06T04:49:36.152Z,1.11
2019-04-06T04:50:36.231Z,1.22
2019-04-06T04:51:36.133Z,1.18
2019-04-06T04:52:46.579Z,1.15
2019-04-06T04:53:36.104Z,1.36
2019-04-06T04:54:36.100Z,1.36
2019-04-06T04:55:36.083Z,1.34
2019-04-06T04:56:36.301Z,1.44
2019-04-06T04:57:41.220Z,1.34
2019-04-06T04:58:37.060Z,1.36
2019-04-06T04:59:36.043Z,1.40
2019-04-06T05:00:36.037Z,1.42
2019-04-06T05:01:36.078Z,1.41
2019-04-06T05:02:36.054Z,1.41
2019-04-06T05:03:36.003Z,1.41
2019-04-06T05:04:36.001Z,1.51
2019-04-06T05:05:36.015Z,1.51
2019-04-06T05:06:35.973Z,1.45
2019-04-06T05:07:36.150Z,1.50
2019-04-06T05:08:35.983Z,1.47
2019-04-06T05:09:35.979Z,1.52
2019-04-06T05:10:35.929Z,1.66
2019-04-06T05:11:35.911Z,1.55
2019-04-06T05:12:35.900Z,1.62
2019-04-06T05:13:35.895Z,1.69
2019-04-06T05:14:35.925Z,1.69
2019-04-06T05:15:35.872Z,1.73
2019-04-06T05:16:35.864Z,1.73
2019-04-06T05:17:35.855Z,1.76
2019-04-06T05:18:35.913Z,1.73
2019-04-06T05:19:35.827Z,1.73
2019-04-06T05:20:35.861Z,1.66
2019-04-06T05:21:35.811Z,1.65
2019-04-06T05:22:35.851Z,1.73
2019-04-06T05:23:46.005Z,1.73
2019-04-06T05:24:35.775Z,1.68
2019-04-06T05:25:35.765Z,1.70
2019-04-06T05:26:37.848Z,1.70
2019-04-06T05:27:35.923Z,1.77
2019-04-06T05:28:35.827Z,1.77
2019-04-06T05:29:35.717Z,1.87
2019-04-06T05:30:35.743Z,1.73
2019-04-06T05:31:35.696Z,1.90
2019-04-06T05:32:35.701Z,1.95
2019-04-06T05:33:35.720Z,2.07
2019-04-06T05:34:35.736Z,2.07
2019-04-06T05:35:35.659Z,2.10
2019-04-06T05:36:35.649Z,2.06
2019-04-06T05:37:35.709Z,2.18
2019-04-06T05:38:35.632Z,2.20
2019-04-06T05:39:35.630Z,2.36
2019-04-06T05:40:35.597Z,2.39
2019-04-06T05:41:35.589Z,2.38
2019-04-06T05:42:35.748Z,2.53
2019-04-06T05:43:35.597Z,2.49
2019-04-06T05:44:35.558Z,2.53
2019-04-06T05:45:35.546Z,2.56
2019-04-06T05:46:35.536Z,2.57
2019-04-06T05:47:35.520Z,2.61
2019-04-06T05:48:36.945Z,2.59
2019-04-06T05:49:35.549Z,2.74
2019-04-06T05:50:35.497Z,2.72
2019-04-06T05:51:35.481Z,2.74
2019-04-06T05:52:35.522Z,2.67
2019-04-06T05:53:35.491Z,2.67
2019-04-06T05:54:46.064Z,2.74
2019-04-06T05:55:35.442Z,2.87
2019-04-06T05:56:35.430Z,2.85
2019-04-06T05:57:37.251Z,2.95
2019-04-06T05:58:35.411Z,2.90
2019-04-06T05:59:35.390Z,3.06
2019-04-06T06:00:35.423Z,3.08
2019-04-06T06:01:35.380Z,3.05
2019-04-06T06:02:35.582Z,3.05
2019-04-06T06:03:35.354Z,3.15
2019-04-06T06:04:35.342Z,3.21
2019-04-06T06:05:35.431Z,3.24
2019-04-06T06:06:35.361Z,3.33
2019-04-06T06:07:35.309Z,3.51
2019-04-06T06:08:35.326Z,3.60
2019-04-06T06:09:35.282Z,3.80
2019-04-06T06:10:35.306Z,3.93
2019-04-06T06:11:35.268Z,4.00
2019-04-06T06:12:35.480Z,4.02
2019-04-06T06:13:35.238Z,4.18
2019-04-06T06:14:35.231Z,4.24
2019-04-06T06:15:35.221Z,4.24
2019-04-06T06:16:35.208Z,4.30
2019-04-06T06:17:35.325Z,4.37
2019-04-06T06:18:35.208Z,4.47
2019-04-06T06:19:35.178Z,4.72
2019-04-06T06:20:35.170Z,4.88
2019-04-06T06:21:35.178Z,5.35
2019-04-06T06:22:35.156Z,5.81
2019-04-06T06:23:35.164Z,6.34
2019-04-06T06:24:35.172Z,6.73
2019-04-06T06:25:45.408Z,7.23
2019-04-06T06:26:35.098Z,7.68
2019-04-06T06:27:35.092Z,7.92
2019-04-06T06:28:35.079Z,8.10
2019-04-06T06:29:35.107Z,8.37
2019-04-06T06:30:35.056Z,8.40
2019-04-06T06:31:35.069Z,8.66
2019-04-06T06:32:35.037Z,8.70
2019-04-06T06:33:35.029Z,8.95
2019-04-06T06:34:35.018Z,9.08
2019-04-06T06:35:35.015Z,9.01
2019-04-06T06:36:35.006Z,8.99
2019-04-06T06:37:35.024Z,8.94
2019-04-06T06:38:34.975Z,9.17
2019-04-06T06:39:34.963Z,9.26
2019-04-06T06:40:34.986Z,9.51
2019-04-06T06:41:34.942Z,9.50
2019-04-06T06:42:34.929Z,9.48
2019-04-06T06:43:34.919Z,9.57
2019-04-06T06:44:34.904Z,9.53
2019-04-06T06:45:34.893Z,9.48
2019-04-06T06:46:34.921Z,9.47
2019-04-06T06:47:34.870Z,9.53
2019-04-06T06:48:34.860Z,9.66
2019-04-06T06:49:34.848Z,9.66
2019-04-06T06:50:34.842Z,9.68
2019-04-06T06:51:34.826Z,9.79
2019-04-06T06:52:34.831Z,9.93
2019-04-06T06:53:34.842Z,10.07
2019-04-06T06:54:34.793Z,10.02
2019-04-06T06:55:34.793Z,10.02
2019-04-06T06:56:45.513Z,9.84
2019-04-06T06:57:34.970Z,9.81
2019-04-06T06:58:34.793Z,9.78
2019-04-06T06:59:34.746Z,9.87
2019-04-06T07:00:34.726Z,10.22
2019-04-06T07:01:34.724Z,10.59
2019-04-06T07:02:34.710Z,10.76
2019-04-06T07:03:34.695Z,10.91
2019-04-06T07:04:34.729Z,10.64
2019-04-06T07:05:34.920Z,10.66
2019-04-06T07:06:34.966Z,10.89
2019-04-06T07:07:34.652Z,10.99
2019-04-06T07:08:34.955Z,11.27
2019-04-06T07:09:34.635Z,11.44
2019-04-06T07:10:34.652Z,11.15
2019-04-06T07:11:34.611Z,11.35
2019-04-06T07:12:34.674Z,11.29
2019-04-06T07:13:34.585Z,11.35
2019-04-06T07:14:34.577Z,11.29
2019-04-06T07:15:34.561Z,11.27
2019-04-06T07:16:34.604Z,11.70
2019-04-06T07:17:34.544Z,12.05
2019-04-06T07:18:34.531Z,12.14
2019-04-06T07:19:34.521Z,12.10
2019-04-06T07:20:34.507Z,11.96
2019-04-06T07:21:34.572Z,12.19
2019-04-06T07:22:34.532Z,12.42
2019-04-06T07:23:34.478Z,12.39
2019-04-06T07:24:34.465Z,12.52
2019-04-06T07:25:34.568Z,12.82
2019-04-06T07:26:34.651Z,13.00
2019-04-06T07:27:45.144Z,13.38
2019-04-06T07:28:38.137Z,13.85
2019-04-06T07:29:34.416Z,14.10
2019-04-06T07:30:34.398Z,13.69
2019-04-06T07:31:34.386Z,13.62
2019-04-06T07:32:34.377Z,13.79
2019-04-06T07:33:34.531Z,13.77
2019-04-06T07:34:34.363Z,14.06
2019-04-06T07:35:34.352Z,14.14
2019-04-06T07:36:34.506Z,14.00
2019-04-06T07:37:34.326Z,13.75
2019-04-06T07:38:34.333Z,13.67
2019-04-06T07:39:34.569Z,13.77
2019-04-06T07:40:34.298Z,13.71
2019-04-06T07:41:34.287Z,13.92
2019-04-06T07:42:34.560Z,14.14
2019-04-06T07:43:34.262Z,14.00
2019-04-06T07:44:34.495Z,13.91
2019-04-06T07:45:34.244Z,14.15
2019-04-06T07:46:34.225Z,14.50
2019-04-06T07:47:34.221Z,14.46
2019-04-06T07:48:34.410Z,14.96
2019-04-06T07:49:34.199Z,14.88
2019-04-06T07:50:34.190Z,14.88
2019-04-06T07:51:34.170Z,14.84
2019-04-06T07:52:34.159Z,14.80
2019-04-06T07:53:34.154Z,14.91
2019-04-06T07:54:34.138Z,14.95
2019-04-06T07:55:34.151Z,14.94
2019-04-06T07:56:34.116Z,14.94
2019-04-06T07:57:34.292Z,14.68
2019-04-06T07:58:49.547Z,14.96
2019-04-06T07:59:34.089Z,14.98
2019-04-06T08:00:34.077Z,15.06
2019-04-06T08:01:34.141Z,15.34
2019-04-06T08:02:34.055Z,15.41
2019-04-06T08:03:34.046Z,14.84
2019-04-06T08:04:34.031Z,14.84
2019-04-06T08:05:34.025Z,15.11
2019-04-06T08:06:34.641Z,15.46
2019-04-06T08:07:34.033Z,15.50
2019-04-06T08:08:33.985Z,15.53
2019-04-06T08:09:33.977Z,15.20
2019-04-06T08:10:33.969Z,15.49
2019-04-06T08:11:33.952Z,15.57
2019-04-06T08:12:33.943Z,16.20
2019-04-06T08:13:33.938Z,16.25
2019-04-06T08:14:33.921Z,16.30
2019-04-06T08:15:34.335Z,16.05
2019-04-06T08:16:33.898Z,16.64
2019-04-06T08:17:34.056Z,16.68
2019-04-06T08:18:33.893Z,16.79
2019-04-06T08:19:34.101Z,16.68
2019-04-06T08:20:33.865Z,16.50
2019-04-06T08:21:33.852Z,16.34
2019-04-06T08:22:33.838Z,16.01
2019-04-06T08:23:33.821Z,16.01
2019-04-06T08:24:33.821Z,16.71
2019-04-06T08:25:33.804Z,16.91
2019-04-06T08:26:33.791Z,16.53
2019-04-06T08:27:33.791Z,16.81
2019-04-06T08:28:33.777Z,17.31
2019-04-06T08:29:44.701Z,16.66
2019-04-06T08:30:45.060Z,17.03
2019-04-06T08:31:34.738Z,16.89
2019-04-06T08:32:33.733Z,16.56
2019-04-06T08:33:33.720Z,16.70
2019-04-06T08:34:33.703Z,17.22
2019-04-06T08:35:33.734Z,17.19
2019-04-06T08:36:33.690Z,17.41
2019-04-06T08:37:33.678Z,17.59
2019-04-06T08:38:33.685Z,17.36
2019-04-06T08:39:33.653Z,17.16
2019-04-06T08:40:33.643Z,17.46
2019-04-06T08:41:33.674Z,17.72
2019-04-06T08:42:33.627Z,18.15
2019-04-06T08:43:33.612Z,18.23
2019-04-06T08:44:33.606Z,18.33
2019-04-06T08:45:33.589Z,18.29
2019-04-06T08:46:33.667Z,18.21
2019-04-06T08:47:33.609Z,18.14
2019-04-06T08:48:33.755Z,18.35
2019-04-06T08:49:33.642Z,18.30
2019-04-06T08:50:33.539Z,18.36
2019-04-06T08:51:33.527Z,18.78
2019-04-06T08:52:33.515Z,18.55
2019-04-06T08:53:33.517Z,18.76
2019-04-06T08:54:33.500Z,18.62
2019-04-06T08:55:33.490Z,18.42
2019-04-06T08:56:33.473Z,18.94
2019-04-06T08:57:33.636Z,18.94
2019-04-06T08:58:33.519Z,18.63
2019-04-06T08:59:33.447Z,19.22
2019-04-06T09:00:43.936Z,19.19
2019-04-06T09:01:33.428Z,19.40
2019-04-06T09:02:33.415Z,19.50
2019-04-06T09:03:33.577Z,19.77
2019-04-06T09:04:33.427Z,19.77
2019-04-06T09:05:33.386Z,19.74
2019-04-06T09:06:33.369Z,19.76
2019-04-06T09:07:33.360Z,19.88
2019-04-06T09:08:33.353Z,19.80
2019-04-06T09:09:33.344Z,20.16
2019-04-06T09:10:33.339Z,20.36
2019-04-06T09:11:33.321Z,20.14
2019-04-06T09:12:33.427Z,20.14
2019-04-06T09:13:33.360Z,20.52
2019-04-06T09:14:33.294Z,21.04
2019-04-06T09:15:33.323Z,21.43
2019-04-06T09:16:33.270Z,21.24
2019-04-06T09:17:33.270Z,21.04
2019-04-06T09:18:33.247Z,20.94
2019-04-06T09:19:33.234Z,21.22
2019-04-06T09:20:33.227Z,21.07
2019-04-06T09:21:33.232Z,21.17
2019-04-06T09:22:33.209Z,21.12
2019-04-06T09:23:33.204Z,21.38
2019-04-06T09:24:33.437Z,21.71
2019-04-06T09:25:33.409Z,22.09
2019-04-06T09:26:33.184Z,22.30
2019-04-06T09:27:33.159Z,22.57
2019-04-06T09:28:33.256Z,22.64
2019-04-06T09:29:33.139Z,22.54
2019-04-06T09:30:33.132Z,21.54
2019-04-06T09:31:43.784Z,21.49
2019-04-06T09:32:33.302Z,21.75
2019-04-06T09:33:33.135Z,21.80
2019-04-06T09:34:33.131Z,21.56
2019-04-06T09:35:33.083Z,21.14
2019-04-06T09:36:33.069Z,21.24
2019-04-06T09:37:33.202Z,21.52
2019-04-06T09:38:33.054Z,21.06
2019-04-06T09:39:33.046Z,20.89
2019-04-06T09:40:33.030Z,21.01
2019-04-06T09:41:33.026Z,21.24
2019-04-06T09:42:33.013Z,21.56
2019-04-06T09:43:33.345Z,22.02
2019-04-06T09:44:33.050Z,22.43
2019-04-06T09:45:32.981Z,21.94
2019-04-06T09:46:32.977Z,21.82
2019-04-06T09:47:32.966Z,22.20
2019-04-06T09:48:32.955Z,22.55
2019-04-06T09:49:32.991Z,22.79
2019-04-06T09:50:33.129Z,22.40
2019-04-06T09:51:32.923Z,22.31
2019-04-06T09:52:32.915Z,22.25
2019-04-06T09:53:33.573Z,22.39
2019-04-06T09:54:32.897Z,22.70
2019-04-06T09:55:32.932Z,22.79
2019-04-06T09:56:33.739Z,22.64
2019-04-06T09:57:32.865Z,22.64
2019-04-06T09:58:33.043Z,22.45
2019-04-06T09:59:35.912Z,22.76
2019-04-06T10:00:32.842Z,23.31
2019-04-06T10:01:38.772Z,23.57
2019-04-06T10:03:46.191Z,23.66
2019-04-06T10:04:46.182Z,23.61
2019-04-06T10:05:46.191Z,23.70
2019-04-06T10:06:46.161Z,23.70
2019-04-06T10:07:46.152Z,23.87
2019-04-06T10:08:46.137Z,23.69
2019-04-06T10:09:46.131Z,23.65
2019-04-06T10:10:46.122Z,23.61
2019-04-06T10:11:46.121Z,22.90
2019-04-06T10:12:46.099Z,22.97
2019-04-06T10:13:46.270Z,22.27
2019-04-06T10:14:46.086Z,22.65
2019-04-06T10:15:46.079Z,22.45
2019-04-06T10:16:46.089Z,22.61
2019-04-06T10:17:46.146Z,23.16
2019-04-06T10:18:46.047Z,22.85
2019-04-06T10:19:46.034Z,22.28
2019-04-06T10:20:46.046Z,22.40
2019-04-06T10:21:46.250Z,22.09
2019-04-06T10:22:46.075Z,20.92
2019-04-06T10:23:46.159Z,21.14
2019-04-06T10:24:46.233Z,21.94
2019-04-06T10:25:46.752Z,22.35
2019-04-06T10:26:45.973Z,22.82
2019-04-06T10:27:45.957Z,23.35
2019-04-06T10:28:45.961Z,23.69
2019-04-06T10:29:49.542Z,23.68
2019-04-06T10:30:45.930Z,23.61
2019-04-06T10:31:46.255Z,23.42
2019-04-06T10:32:46.253Z,22.91
2019-04-06T10:33:52.884Z,22.15
2019-04-06T10:34:45.892Z,22.24
2019-04-06T10:35:46.338Z,21.46
2019-04-06T10:36:46.793Z,21.14
2019-04-06T10:37:46.118Z,21.32
2019-04-06T10:38:45.854Z,21.59
2019-04-06T10:39:46.795Z,22.27
2019-04-06T10:40:45.839Z,21.90
2019-04-06T10:41:46.322Z,22.55
2019-04-06T10:42:46.789Z,22.57
2019-04-06T10:43:45.922Z,22.95
2019-04-06T10:44:45.799Z,22.73
2019-04-06T10:45:46.403Z,22.12
2019-04-06T10:46:45.799Z,22.02
2019-04-06T10:47:45.809Z,22.39
2019-04-06T10:48:45.906Z,22.40
2019-04-06T10:49:45.764Z,22.58
2019-04-06T10:50:45.793Z,22.35
2019-04-06T10:51:45.751Z,22.02
2019-04-06T10:52:45.725Z,21.98
2019-04-06T10:53:45.755Z,22.28
2019-04-06T10:54:45.709Z,22.60
2019-04-06T10:55:46.292Z,23.09
2019-04-06T10:56:45.692Z,22.06
2019-04-06T10:57:45.838Z,21.58
2019-04-06T10:58:46.293Z,21.64
2019-04-06T10:59:46.293Z,22.52
2019-04-06T11:00:46.298Z,23.01
2019-04-06T11:01:45.640Z,23.10
2019-04-06T11:02:45.866Z,23.40
2019-04-06T11:03:45.622Z,23.90
2019-04-06T11:04:56.675Z,24.21
2019-04-06T11:05:45.655Z,22.83
2019-04-06T11:06:45.796Z,22.17
2019-04-06T11:07:45.596Z,22.57
2019-04-06T11:08:45.576Z,23.31
2019-04-06T11:09:45.574Z,23.54
2019-04-06T11:10:45.603Z,22.79
2019-04-06T11:11:45.688Z,22.00
2019-04-06T11:12:45.564Z,22.61
2019-04-06T11:13:45.530Z,22.98
2019-04-06T11:14:45.776Z,22.31
2019-04-06T11:15:45.511Z,22.65
2019-04-06T11:16:47.786Z,22.92
2019-04-06T11:17:45.493Z,23.16
2019-04-06T11:18:45.485Z,23.32
2019-04-06T11:19:45.537Z,23.88
2019-04-06T11:20:45.465Z,24.15
2019-04-06T11:21:45.779Z,24.15
2019-04-06T11:22:45.694Z,24.47
2019-04-06T11:23:45.448Z,24.13
2019-04-06T11:24:45.430Z,23.84
2019-04-06T11:25:46.338Z,23.57
2019-04-06T11:26:45.410Z,23.27
2019-04-06T11:27:45.414Z,23.63
2019-04-06T11:28:45.400Z,23.73
2019-04-06T11:29:45.516Z,24.18
2019-04-06T11:30:45.378Z,23.58
2019-04-06T11:31:45.369Z,23.48
2019-04-06T11:32:45.436Z,24.15
2019-04-06T11:33:45.383Z,24.61
2019-04-06T11:34:45.479Z,24.53
2019-04-06T11:35:55.284Z,23.54
2019-04-06T11:36:45.324Z,23.31
2019-04-06T11:37:45.312Z,23.42
2019-04-06T11:38:45.302Z,23.88
2019-04-06T11:39:45.305Z,23.58
2019-04-06T11:40:45.281Z,23.55
2019-04-06T11:41:45.550Z,23.66
2019-04-06T11:42:45.271Z,23.13
2019-04-06T11:43:45.260Z,23.54
2019-04-06T11:44:45.292Z,23.98
2019-04-06T11:45:45.236Z,24.45
2019-04-06T11:46:45.232Z,24.02
2019-04-06T11:47:45.217Z,23.87
2019-04-06T11:48:45.840Z,22.77
2019-04-06T11:49:45.204Z,22.61
2019-04-06T11:50:45.233Z,23.65
2019-04-06T11:51:45.183Z,23.76
2019-04-06T11:52:45.172Z,23.72
2019-04-06T11:53:45.165Z,23.95
2019-04-06T11:54:45.478Z,24.61
2019-04-06T11:55:45.457Z,24.80
2019-04-06T11:56:45.172Z,24.93
2019-04-06T11:57:45.130Z,25.03
2019-04-06T11:58:45.123Z,25.51
2019-04-06T11:59:45.108Z,25.62
2019-04-06T12:00:45.098Z,25.65
2019-04-06T12:01:45.093Z,25.55
2019-04-06T12:02:45.097Z,25.38
2019-04-06T12:03:45.205Z,25.21
2019-04-06T12:04:45.062Z,23.95
2019-04-06T12:05:45.055Z,23.54
2019-04-06T12:06:55.690Z,23.12
2019-04-06T12:07:45.033Z,23.04
2019-04-06T12:08:45.072Z,23.23
2019-04-06T12:09:45.022Z,23.66
2019-04-06T12:10:45.271Z,23.94
2019-04-06T12:11:45.121Z,24.02
2019-04-06T12:12:44.993Z,23.31
2019-04-06T12:13:44.986Z,23.15
2019-04-06T12:14:45.084Z,23.07
2019-04-06T12:15:44.963Z,22.39
2019-04-06T12:16:44.952Z,22.58
2019-04-06T12:17:45.478Z,22.94
2019-04-06T12:18:44.943Z,23.22
2019-04-06T12:19:45.395Z,22.73
2019-04-06T12:20:44.925Z,23.39
2019-04-06T12:21:44.924Z,23.85
2019-04-06T12:22:44.900Z,24.05
2019-04-06T12:23:44.892Z,24.25
2019-04-06T12:24:44.887Z,24.45
2019-04-06T12:25:44.913Z,24.13
2019-04-06T12:26:45.175Z,23.91
2019-04-06T12:27:44.851Z,23.70
2019-04-06T12:28:44.863Z,23.13
2019-04-06T12:29:44.947Z,22.88
2019-04-06T12:30:44.825Z,22.94
2019-04-06T12:31:44.847Z,23.75
2019-04-06T12:32:44.814Z,22.70
2019-04-06T12:33:44.804Z,23.51
2019-04-06T12:34:44.788Z,24.02
2019-04-06T12:35:45.209Z,24.64
2019-04-06T12:36:44.774Z,24.84
2019-04-06T12:37:55.458Z,24.83
2019-04-06T12:38:44.753Z,25.15
2019-04-06T12:39:52.241Z,25.03
2019-04-06T12:40:45.933Z,24.30
2019-04-06T12:41:45.126Z,24.64
2019-04-06T12:42:45.133Z,25.23
2019-04-06T12:43:44.718Z,26.02
2019-04-06T12:44:44.705Z,25.79
2019-04-06T12:45:44.689Z,26.60
2019-04-06T12:46:44.684Z,25.55
2019-04-06T12:47:44.771Z,25.14
2019-04-06T12:48:44.670Z,25.54
2019-04-06T12:49:44.653Z,26.65
2019-04-06T12:50:44.983Z,26.92
2019-04-06T12:51:44.940Z,27.37
2019-04-06T12:52:44.719Z,26.58
2019-04-06T12:53:44.655Z,26.10
2019-04-06T12:54:44.608Z,25.85
2019-04-06T12:55:44.601Z,25.46
2019-04-06T12:56:44.603Z,24.90
2019-04-06T12:57:44.580Z,24.69
2019-04-06T12:58:44.568Z,25.15
2019-04-06T12:59:44.567Z,25.24
2019-04-06T13:00:52.684Z,25.40